Terminal Aerodrome Forecast
Issued by NWS

Home | Current Version | Previous Version | Text Only | Print | Product List | Glossary On
Versions: 1 2 3 4 5 6 7 8 9 10 11 12 13 14 15 16 17 18 19 20 21
000
FTUS43 KDVN 160804 AAA
TAFCID
TAF AMD
KCID 160804Z 1608/1706 11005KT 2SM -FZRA BR OVC010
     FM161600 09009KT 2SM RA BR OVC005
     FM170300 08004KT 1SM -DZ BR OVC003=

USA.gov is the U.S. government's official web portal to all federal, state and local government web resources and services.